Main page
METAR-TAF:

METAR-TAF

Airports :

Naval Station Rota

Rota, Spain

latitude: 36-39N, longitude: 006-21W, elevation: 26 m

Current weather observation

The report was made 40 minutes ago, at 22:30 UTC
Wind 3 kt from the North
Temperature 16°C
Humidity 94%
Pressure 1023 hPa
Visibility 10 km or more
no clouds below 1500 m and no cumulonimbus

METAR: LERT 282230Z 01003KT CAVOK 16/15 Q1023 NOSIG

Time: 00:10 (23:10 UTC)

Forecast

The report was made 3 hours and 10 minutes ago, at 20:00 UTC
Forecast valid from 28 at 21 UTC to 29 at 21 UTC
Wind 5 kt from the Northeast
Visibility 10 km or more
no clouds below 1500 m and no cumulonimbus

TAF: LERT 282000Z 2821/2921 04005KT CAVOK TX22/2915Z TN13/2906Z

Weather observations and forecasts of more than 4000 airports (METAR and TAF reports).

The available stations are represented by yellow and red dots on the map.

Hover mouse over dot to see the name of the station.

Then click to see weather observations and forecasts.

To change the map : click on the green buttons with a black cross to zoom in, on the green button with a dash to zoom out, or on the green arrows for adjacent maps.


METAR-TAF: